sensor_id;sensor_type;location;lat;lon;timestamp;pressure;altitude;pressure_sealevel;temperature;humidity
58769;BME280;44536;47.474;19.056;2023-05-07T00:00:49;100484.09;;;15.13;99.62
58769;BME280;44536;47.474;19.056;2023-05-07T00:03:52;100482.41;;;15.12;99.12
58769;BME280;44536;47.474;19.056;2023-05-07T00:06:54;100485.19;;;15.30;98.66
58769;BME280;44536;47.474;19.056;2023-05-07T00:09:57;100490.84;;;15.17;99.72
58769;BME280;44536;47.474;19.056;2023-05-07T00:13:00;100499.31;;;15.03;100.00
58769;BME280;44536;47.474;19.056;2023-05-07T00:16:03;100489.19;;;14.97;100.00
58769;BME280;44536;47.474;19.056;2023-05-07T00:19:05;100497.63;;;14.92;100.00
58769;BME280;44536;47.474;19.056;2023-05-07T00:22:08;100488.91;;;14.90;100.00
58769;BME280;44536;47.474;19.056;2023-05-07T00:25:10;100488.50;;;14.85;100.00
58769;BME280;44536;47.474;19.056;2023-05-07T00:28:14;100489.91;;;14.79;100.00
58769;BME280;44536;47.474;19.056;2023-05-07T00:31:18;100493.81;;;14.75;100.00
58769;BME280;44536;47.474;19.056;2023-05-07T00:34:21;100493.25;;;14.72;100.00
58769;BME280;44536;47.474;19.056;2023-05-07T00:37:23;100501.13;;;14.73;100.00
58769;BME280;44536;47.474;19.056;2023-05-07T00:40:25;100493.69;;;14.67;100.00
58769;BME280;44536;47.474;19.056;2023-05-07T00:43:28;100493.38;;;14.61;100.00
58769;BME280;44536;47.474;19.056;2023-05-07T00:46:31;100496.91;;;14.51;100.00
58769;BME280;44536;47.474;19.056;2023-05-07T00:49:39;100505.75;;;14.42;100.00
58769;BME280;44536;47.474;19.056;2023-05-07T00:52:43;100499.66;;;14.40;100.00
58769;BME280;44536;47.474;19.056;2023-05-07T00:55:45;100501.75;;;14.27;100.00
58769;BME280;44536;47.474;19.056;2023-05-07T00:58:49;100502.69;;;14.16;100.00
58769;BME280;44536;47.474;19.056;2023-05-07T01:01:51;100497.91;;;14.10;100.00
58769;BME280;44536;47.474;19.056;2023-05-07T01:04:55;100508.13;;;14.05;100.00
58769;BME280;44536;47.474;19.056;2023-05-07T01:07:58;100501.94;;;13.95;100.00
58769;BME280;44536;47.474;19.056;2023-05-07T01:11:00;100500.12;;;13.96;100.00
58769;BME280;44536;47.474;19.056;2023-05-07T01:14:04;100508.53;;;13.91;100.00
58769;BME280;44536;47.474;19.056;2023-05-07T01:17:07;100497.84;;;13.91;100.00
58769;BME280;44536;47.474;19.056;2023-05-07T01:20:10;100500.53;;;13.91;100.00
58769;BME280;44536;47.474;19.056;2023-05-07T01:23:15;100501.63;;;13.88;100.00
58769;BME280;44536;47.474;19.056;2023-05-07T01:26:17;100510.59;;;13.87;100.00
58769;BME280;44536;47.474;19.056;2023-05-07T01:29:22;100519.00;;;13.83;100.00
58769;BME280;44536;47.474;19.056;2023-05-07T01:32:33;100514.87;;;14.00;100.00
58769;BME280;44536;47.474;19.056;2023-05-07T01:35:41;100513.75;;;14.02;100.00
58769;BME280;44536;47.474;19.056;2023-05-07T01:38:44;100510.59;;;13.87;100.00
58769;BME280;44536;47.474;19.056;2023-05-07T01:41:48;100512.25;;;13.79;100.00
58769;BME280;44536;47.474;19.056;2023-05-07T01:44:51;100520.06;;;13.71;100.00
58769;BME280;44536;47.474;19.056;2023-05-07T01:47:54;100516.81;;;13.67;100.00
58769;BME280;44536;47.474;19.056;2023-05-07T01:50:57;100516.38;;;13.62;100.00
58769;BME280;44536;47.474;19.056;2023-05-07T01:54:00;100512.03;;;13.61;100.00
58769;BME280;44536;47.474;19.056;2023-05-07T01:57:03;100508.19;;;13.54;100.00
58769;BME280;44536;47.474;19.056;2023-05-07T02:00:06;100507.78;;;13.49;100.00
58769;BME280;44536;47.474;19.056;2023-05-07T02:03:16;100505.50;;;13.44;100.00
58769;BME280;44536;47.474;19.056;2023-05-07T02:06:20;100497.44;;;13.35;100.00
58769;BME280;44536;47.474;19.056;2023-05-07T02:09:23;100491.16;;;13.36;100.00
58769;BME280;44536;47.474;19.056;2023-05-07T02:12:26;100489.25;;;13.27;100.00
58769;BME280;44536;47.474;19.056;2023-05-07T02:15:28;100490.63;;;13.21;100.00
58769;BME280;44536;47.474;19.056;2023-05-07T02:18:32;100491.25;;;13.13;100.00
58769;BME280;44536;47.474;19.056;2023-05-07T02:21:34;100495.59;;;13.14;100.00
58769;BME280;44536;47.474;19.056;2023-05-07T02:24:37;100490.41;;;13.13;100.00
58769;BME280;44536;47.474;19.056;2023-05-07T02:27:39;100479.88;;;13.11;100.00
58769;BME280;44536;47.474;19.056;2023-05-07T02:30:42;100486.56;;;13.06;100.00
58769;BME280;44536;47.474;19.056;2023-05-07T02:33:45;100483.31;;;13.02;100.00
58769;BME280;44536;47.474;19.056;2023-05-07T02:36:47;100491.28;;;13.02;100.00
58769;BME280;44536;47.474;19.056;2023-05-07T02:39:51;100485.47;;;13.08;100.00
58769;BME280;44536;47.474;19.056;2023-05-07T02:42:53;100484.09;;;13.14;100.00
58769;BME280;44536;47.474;19.056;2023-05-07T02:46:07;100488.56;;;13.13;100.00
58769;BME280;44536;47.474;19.056;2023-05-07T02:49:10;100485.72;;;13.05;100.00
58769;BME280;44536;47.474;19.056;2023-05-07T02:52:13;100481.31;;;12.95;100.00
58769;BME280;44536;47.474;19.056;2023-05-07T02:55:15;100488.97;;;12.88;100.00
58769;BME280;44536;47.474;19.056;2023-05-07T02:58:18;100490.31;;;12.82;100.00
58769;BME280;44536;47.474;19.056;2023-05-07T03:01:21;100491.81;;;12.75;100.00
58769;BME280;44536;47.474;19.056;2023-05-07T03:04:24;100494.37;;;12.66;100.00
58769;BME280;44536;47.474;19.056;2023-05-07T03:07:27;100486.91;;;12.59;100.00
58769;BME280;44536;47.474;19.056;2023-05-07T03:10:30;100493.88;;;12.72;100.00
58769;BME280;44536;47.474;19.056;2023-05-07T03:13:32;100493.12;;;12.81;100.00
58769;BME280;44536;47.474;19.056;2023-05-07T03:16:35;100493.31;;;12.89;100.00
58769;BME280;44536;47.474;19.056;2023-05-07T03:19:37;100493.31;;;12.89;100.00
58769;BME280;44536;47.474;19.056;2023-05-07T03:22:40;100492.94;;;12.93;100.00
58769;BME280;44536;47.474;19.056;2023-05-07T03:25:42;100493.78;;;12.94;100.00
58769;BME280;44536;47.474;19.056;2023-05-07T03:28:45;100495.66;;;13.03;100.00
58769;BME280;44536;47.474;19.056;2023-05-07T03:31:48;100487.16;;;13.09;100.00
58769;BME280;44536;47.474;19.056;2023-05-07T03:34:50;100490.88;;;13.18;100.00
58769;BME280;44536;47.474;19.056;2023-05-07T03:37:53;100483.94;;;13.27;100.00
58769;BME280;44536;47.474;19.056;2023-05-07T03:40:56;100492.84;;;13.37;100.00
58769;BME280;44536;47.474;19.056;2023-05-07T03:44:01;100494.44;;;13.49;100.00
58769;BME280;44536;47.474;19.056;2023-05-07T03:47:04;100491.22;;;13.55;100.00
58769;BME280;44536;47.474;19.056;2023-05-07T03:50:07;100492.53;;;13.61;100.00
58769;BME280;44536;47.474;19.056;2023-05-07T03:53:10;100488.47;;;13.66;100.00
58769;BME280;44536;47.474;19.056;2023-05-07T03:56:13;100495.56;;;13.77;100.00
58769;BME280;44536;47.474;19.056;2023-05-07T03:59:15;100492.75;;;13.78;100.00
58769;BME280;44536;47.474;19.056;2023-05-07T04:02:18;100501.47;;;13.80;100.00
58769;BME280;44536;47.474;19.056;2023-05-07T04:05:21;100496.53;;;13.76;100.00
58769;BME280;44536;47.474;19.056;2023-05-07T04:08:24;100508.69;;;13.69;100.00
58769;BME280;44536;47.474;19.056;2023-05-07T04:11:27;100501.41;;;13.71;100.00
58769;BME280;44536;47.474;19.056;2023-05-07T04:14:29;100514.59;;;13.72;100.00
58769;BME280;44536;47.474;19.056;2023-05-07T04:17:35;100511.81;;;13.74;100.00
58769;BME280;44536;47.474;19.056;2023-05-07T04:20:37;100516.69;;;13.69;100.00
58769;BME280;44536;47.474;19.056;2023-05-07T04:23:41;100512.25;;;13.79;100.00
58769;BME280;44536;47.474;19.056;2023-05-07T04:26:44;100524.59;;;13.80;100.00
58769;BME280;44536;47.474;19.056;2023-05-07T04:29:46;100531.87;;;13.78;100.00
58769;BME280;44536;47.474;19.056;2023-05-07T04:32:50;100530.91;;;13.79;100.00
58769;BME280;44536;47.474;19.056;2023-05-07T04:35:53;100532.59;;;13.80;100.00
58769;BME280;44536;47.474;19.056;2023-05-07T04:38:55;100530.81;;;13.90;100.00
58769;BME280;44536;47.474;19.056;2023-05-07T04:41:58;100529.75;;;14.02;100.00
58769;BME280;44536;47.474;19.056;2023-05-07T04:45:01;100534.97;;;14.13;100.00
58769;BME280;44536;47.474;19.056;2023-05-07T04:48:05;100540.22;;;14.34;100.00
58769;BME280;44536;47.474;19.056;2023-05-07T04:51:08;100533.44;;;14.51;100.00
58769;BME280;44536;47.474;19.056;2023-05-07T04:54:11;100532.56;;;14.60;100.00
58769;BME280;44536;47.474;19.056;2023-05-07T04:57:13;100537.81;;;14.90;99.33
58769;BME280;44536;47.474;19.056;2023-05-07T05:00:16;100543.00;;;15.21;97.46
58769;BME280;44536;47.474;19.056;2023-05-07T05:03:21;100540.31;;;15.60;94.24
58769;BME280;44536;47.474;19.056;2023-05-07T05:06:25;100529.47;;;15.98;91.31
58769;BME280;44536;47.474;19.056;2023-05-07T05:09:28;100539.50;;;16.14;90.93
58769;BME280;44536;47.474;19.056;2023-05-07T05:12:31;100538.44;;;16.07;89.88
58769;BME280;44536;47.474;19.056;2023-05-07T05:15:34;100542.94;;;16.06;90.11
58769;BME280;44536;47.474;19.056;2023-05-07T05:18:37;100544.12;;;16.21;89.11
58769;BME280;44536;47.474;19.056;2023-05-07T05:21:40;100544.03;;;16.41;88.68
58769;BME280;44536;47.474;19.056;2023-05-07T05:24:43;100551.84;;;17.15;84.66
58769;BME280;44536;47.474;19.056;2023-05-07T05:27:45;100537.91;;;17.81;81.81
58769;BME280;44536;47.474;19.056;2023-05-07T05:30:49;100547.50;;;17.83;78.96
58769;BME280;44536;47.474;19.056;2023-05-07T05:33:51;100544.38;;;17.96;78.66
58769;BME280;44536;47.474;19.056;2023-05-07T05:36:54;100542.25;;;18.50;76.70
58769;BME280;44536;47.474;19.056;2023-05-07T05:39:57;100547.72;;;18.91;73.96
58769;BME280;44536;47.474;19.056;2023-05-07T05:43:00;100541.19;;;19.01;71.56
58769;BME280;44536;47.474;19.056;2023-05-07T05:46:03;100534.63;;;18.96;70.45
58769;BME280;44536;47.474;19.056;2023-05-07T05:49:07;100537.75;;;20.44;64.72
58769;BME280;44536;47.474;19.056;2023-05-07T05:52:12;100534.69;;;23.28;54.49
58769;BME280;44536;47.474;19.056;2023-05-07T05:55:16;100538.34;;;25.20;48.69
58769;BME280;44536;47.474;19.056;2023-05-07T05:58:18;100542.31;;;25.63;47.02
58769;BME280;44536;47.474;19.056;2023-05-07T06:01:23;100537.03;;;26.01;45.66
58769;BME280;44536;47.474;19.056;2023-05-07T06:04:26;100536.88;;;26.99;44.15
58769;BME280;44536;47.474;19.056;2023-05-07T06:07:29;100537.28;;;28.14;40.72
58769;BME280;44536;47.474;19.056;2023-05-07T06:10:31;100537.12;;;27.90;40.14
58769;BME280;44536;47.474;19.056;2023-05-07T06:13:34;100542.34;;;26.86;42.00
58769;BME280;44536;47.474;19.056;2023-05-07T06:16:37;100535.31;;;27.34;40.99
58769;BME280;44536;47.474;19.056;2023-05-07T06:19:40;100541.53;;;27.91;40.22
58769;BME280;44536;47.474;19.056;2023-05-07T06:22:43;100544.41;;;28.51;39.10
58769;BME280;44536;47.474;19.056;2023-05-07T06:25:50;100546.34;;;29.11;38.49
58769;BME280;44536;47.474;19.056;2023-05-07T06:28:53;100554.84;;;29.91;35.73
58769;BME280;44536;47.474;19.056;2023-05-07T06:31:55;100541.81;;;30.73;34.06
58769;BME280;44536;47.474;19.056;2023-05-07T06:34:58;100545.16;;;30.35;34.89
58769;BME280;44536;47.474;19.056;2023-05-07T06:38:00;100541.91;;;30.10;35.95
58769;BME280;44536;47.474;19.056;2023-05-07T06:41:06;100543.09;;;31.27;33.55
58769;BME280;44536;47.474;19.056;2023-05-07T06:44:08;100539.63;;;30.87;34.00
58769;BME280;44536;47.474;19.056;2023-05-07T06:47:11;100547.38;;;29.51;36.14
58769;BME280;44536;47.474;19.056;2023-05-07T06:50:18;100546.81;;;29.31;36.96
58769;BME280;44536;47.474;19.056;2023-05-07T06:53:21;100541.59;;;27.35;40.35
58769;BME280;44536;47.474;19.056;2023-05-07T06:56:24;100535.47;;;26.45;42.23
58769;BME280;44536;47.474;19.056;2023-05-07T06:59:27;100544.06;;;27.68;40.02
58769;BME280;44536;47.474;19.056;2023-05-07T07:02:30;100539.19;;;26.89;40.62
58769;BME280;44536;47.474;19.056;2023-05-07T07:05:32;100539.81;;;27.72;39.61
58769;BME280;44536;47.474;19.056;2023-05-07T07:08:37;100540.00;;;29.52;35.99
58769;BME280;44536;47.474;19.056;2023-05-07T07:11:41;100545.75;;;29.32;36.10
58769;BME280;44536;47.474;19.056;2023-05-07T07:14:43;100555.06;;;25.96;41.58
58769;BME280;44536;47.474;19.056;2023-05-07T07:17:48;100543.84;;;24.18;46.47
58769;BME280;44536;47.474;19.056;2023-05-07T07:20:50;100549.72;;;23.87;47.19
58769;BME280;44536;47.474;19.056;2023-05-07T07:23:53;100559.94;;;23.14;49.58
58769;BME280;44536;47.474;19.056;2023-05-07T07:26:55;100565.31;;;22.57;50.99
58769;BME280;44536;47.474;19.056;2023-05-07T07:29:58;100567.09;;;22.50;50.77
58769;BME280;44536;47.474;19.056;2023-05-07T07:33:01;100571.69;;;22.20;51.45
58769;BME280;44536;47.474;19.056;2023-05-07T07:36:06;100577.97;;;22.86;50.81
58769;BME280;44536;47.474;19.056;2023-05-07T07:39:09;100569.97;;;23.20;49.49
58769;BME280;44536;47.474;19.056;2023-05-07T07:42:12;100570.94;;;23.34;47.97
58769;BME280;44536;47.474;19.056;2023-05-07T07:45:14;100565.53;;;23.34;48.08
58769;BME280;44536;47.474;19.056;2023-05-07T07:48:17;100570.41;;;23.45;49.35
58769;BME280;44536;47.474;19.056;2023-05-07T07:51:20;100572.47;;;23.43;47.54
58769;BME280;44536;47.474;19.056;2023-05-07T07:54:23;100578.41;;;23.32;48.31
58769;BME280;44536;47.474;19.056;2023-05-07T07:57:26;100584.16;;;23.22;47.32
58769;BME280;44536;47.474;19.056;2023-05-07T08:00:29;100582.03;;;23.39;46.92
58769;BME280;44536;47.474;19.056;2023-05-07T08:03:31;100574.03;;;23.31;47.43
58769;BME280;44536;47.474;19.056;2023-05-07T08:06:35;100586.84;;;22.80;49.04
58769;BME280;44536;47.474;19.056;2023-05-07T08:09:38;100588.25;;;22.46;50.07
58769;BME280;44536;47.474;19.056;2023-05-07T08:12:41;100578.09;;;22.48;50.05
58769;BME280;44536;47.474;19.056;2023-05-07T08:15:43;100590.59;;;22.05;51.70
58769;BME280;44536;47.474;19.056;2023-05-07T08:18:46;100584.69;;;21.87;51.58
58769;BME280;44536;47.474;19.056;2023-05-07T08:21:49;100587.88;;;22.49;50.96
58769;BME280;44536;47.474;19.056;2023-05-07T08:24:52;100580.22;;;21.79;52.46
58769;BME280;44536;47.474;19.056;2023-05-07T08:27:56;100580.34;;;21.48;53.72
58769;BME280;44536;47.474;19.056;2023-05-07T08:30:58;100574.06;;;21.70;55.57
58769;BME280;44536;47.474;19.056;2023-05-07T08:34:04;100566.09;;;21.17;57.11
58769;BME280;44536;47.474;19.056;2023-05-07T08:37:10;100561.50;;;20.94;59.79
58769;BME280;44536;47.474;19.056;2023-05-07T08:40:13;100563.00;;;21.42;58.53
58769;BME280;44536;47.474;19.056;2023-05-07T08:43:16;100567.34;;;21.06;63.18
58769;BME280;44536;47.474;19.056;2023-05-07T08:46:21;100572.03;;;20.81;62.67
58769;BME280;44536;47.474;19.056;2023-05-07T08:49:25;100568.87;;;21.00;63.80
58769;BME280;44536;47.474;19.056;2023-05-07T08:52:28;100569.06;;;21.30;60.31
58769;BME280;44536;47.474;19.056;2023-05-07T08:55:31;100566.75;;;22.08;59.35
58769;BME280;44536;47.474;19.056;2023-05-07T08:58:35;100578.59;;;22.07;59.44
58769;BME280;44536;47.474;19.056;2023-05-07T09:01:38;100574.91;;;22.00;59.44
58769;BME280;44536;47.474;19.056;2023-05-07T09:04:42;100563.59;;;22.20;59.82
58769;BME280;44536;47.474;19.056;2023-05-07T09:07:45;100568.75;;;22.65;57.73
58769;BME280;44536;47.474;19.056;2023-05-07T09:10:48;100566.34;;;22.92;56.95
58769;BME280;44536;47.474;19.056;2023-05-07T09:13:55;100563.59;;;23.06;55.07
58769;BME280;44536;47.474;19.056;2023-05-07T09:16:58;100567.34;;;23.27;55.31
58769;BME280;44536;47.474;19.056;2023-05-07T09:20:05;100570.56;;;23.37;54.79
58769;BME280;44536;47.474;19.056;2023-05-07T09:23:11;100568.19;;;23.76;53.52
58769;BME280;44536;47.474;19.056;2023-05-07T09:26:14;100564.03;;;24.15;52.65
58769;BME280;44536;47.474;19.056;2023-05-07T09:29:17;100560.69;;;25.94;48.74
58769;BME280;44536;47.474;19.056;2023-05-07T09:32:20;100562.84;;;27.76;43.98
58769;BME280;44536;47.474;19.056;2023-05-07T09:35:23;100566.97;;;29.48;39.43
58769;BME280;44536;47.474;19.056;2023-05-07T09:38:29;100575.06;;;28.65;40.75
58769;BME280;44536;47.474;19.056;2023-05-07T09:41:32;100566.81;;;28.17;42.44
58769;BME280;44536;47.474;19.056;2023-05-07T09:44:36;100555.31;;;26.90;43.92
58769;BME280;44536;47.474;19.056;2023-05-07T09:47:42;100561.34;;;27.30;44.37
58769;BME280;44536;47.474;19.056;2023-05-07T09:50:49;100560.81;;;26.32;44.98
58769;BME280;44536;47.474;19.056;2023-05-07T09:53:56;100558.63;;;26.99;43.60
58769;BME280;44536;47.474;19.056;2023-05-07T09:57:01;100562.16;;;26.55;44.04
58769;BME280;44536;47.474;19.056;2023-05-07T10:00:06;100560.47;;;25.56;46.83
58769;BME280;44536;47.474;19.056;2023-05-07T10:03:21;100573.81;;;24.51;50.90
58769;BME280;44536;47.474;19.056;2023-05-07T10:06:25;100567.00;;;23.36;51.66
58769;BME280;44536;47.474;19.056;2023-05-07T10:09:28;100567.34;;;23.05;53.02
58769;BME280;44536;47.474;19.056;2023-05-07T10:12:32;100566.69;;;23.03;53.64
58769;BME280;44536;47.474;19.056;2023-05-07T10:15:41;100569.37;;;22.31;54.88
58769;BME280;44536;47.474;19.056;2023-05-07T10:18:46;100577.56;;;22.08;56.85
58769;BME280;44536;47.474;19.056;2023-05-07T10:22:00;100573.16;;;21.93;57.25
58769;BME280;44536;47.474;19.056;2023-05-07T10:25:06;100581.72;;;21.82;56.83
58769;BME280;44536;47.474;19.056;2023-05-07T10:28:12;100570.69;;;21.54;58.01
58769;BME280;44536;47.474;19.056;2023-05-07T10:34:37;100574.88;;;21.56;58.43
58769;BME280;44536;47.474;19.056;2023-05-07T10:37:41;100564.88;;;21.42;58.39
58769;BME280;44536;47.474;19.056;2023-05-07T10:40:43;100570.84;;;21.52;56.73
58769;BME280;44536;47.474;19.056;2023-05-07T10:43:50;100571.00;;;21.88;54.71
58769;BME280;44536;47.474;19.056;2023-05-07T10:47:15;100568.28;;;22.62;49.14
58769;BME280;44536;47.474;19.056;2023-05-07T10:53:24;100564.69;;;23.55;48.84
58769;BME280;44536;47.474;19.056;2023-05-07T10:56:30;100562.56;;;24.13;49.35
58769;BME280;44536;47.474;19.056;2023-05-07T10:59:35;100562.94;;;24.44;48.41
58769;BME280;44536;47.474;19.056;2023-05-07T11:06:12;100565.16;;;24.68;47.56
58769;BME280;44536;47.474;19.056;2023-05-07T11:09:15;100561.66;;;24.27;48.10
58769;BME280;44536;47.474;19.056;2023-05-07T11:15:45;100559.56;;;24.29;48.64
58769;BME280;44536;47.474;19.056;2023-05-07T11:18:50;100551.50;;;24.42;45.49
58769;BME280;44536;47.474;19.056;2023-05-07T11:21:54;100551.84;;;24.26;48.20
58769;BME280;44536;47.474;19.056;2023-05-07T11:25:05;100558.59;;;23.74;47.39
58769;BME280;44536;47.474;19.056;2023-05-07T11:28:09;100564.09;;;24.22;46.53
58769;BME280;44536;47.474;19.056;2023-05-07T11:31:13;100553.41;;;24.14;45.94
58769;BME280;44536;47.474;19.056;2023-05-07T11:34:21;100561.00;;;24.79;44.13
58769;BME280;44536;47.474;19.056;2023-05-07T11:37:25;100557.66;;;24.70;43.39
58769;BME280;44536;47.474;19.056;2023-05-07T11:40:30;100554.19;;;25.10;43.58
58769;BME280;44536;47.474;19.056;2023-05-07T11:43:33;100545.28;;;26.84;40.42
58769;BME280;44536;47.474;19.056;2023-05-07T11:46:35;100550.13;;;26.82;38.71
58769;BME280;44536;47.474;19.056;2023-05-07T11:49:38;100541.59;;;26.14;37.65
58769;BME280;44536;47.474;19.056;2023-05-07T11:52:50;100547.06;;;26.65;38.76
58769;BME280;44536;47.474;19.056;2023-05-07T11:55:57;100545.28;;;28.82;34.90
58769;BME280;44536;47.474;19.056;2023-05-07T11:58:59;100535.19;;;29.36;33.04
58769;BME280;44536;47.474;19.056;2023-05-07T12:02:01;100540.44;;;27.49;35.31
58769;BME280;44536;47.474;19.056;2023-05-07T12:05:04;100531.66;;;25.49;39.69
58769;BME280;44536;47.474;19.056;2023-05-07T12:08:06;100528.53;;;25.12;41.03
58769;BME280;44536;47.474;19.056;2023-05-07T12:11:13;100534.41;;;24.48;42.17
58769;BME280;44536;47.474;19.056;2023-05-07T12:14:15;100528.34;;;25.40;40.24
58769;BME280;44536;47.474;19.056;2023-05-07T12:17:18;100521.81;;;27.46;37.09
58769;BME280;44536;47.474;19.056;2023-05-07T12:20:20;100518.28;;;29.15;33.60
58769;BME280;44536;47.474;19.056;2023-05-07T12:23:23;100525.22;;;29.29;33.23
58769;BME280;44536;47.474;19.056;2023-05-07T12:26:25;100522.88;;;30.43;31.10
58769;BME280;44536;47.474;19.056;2023-05-07T12:29:29;100517.91;;;30.40;30.84
58769;BME280;44536;47.474;19.056;2023-05-07T12:32:31;100520.72;;;29.35;32.65
58769;BME280;44536;47.474;19.056;2023-05-07T12:35:42;100514.66;;;27.52;35.10
58769;BME280;44536;47.474;19.056;2023-05-07T12:38:45;100518.87;;;26.53;36.95
58769;BME280;44536;47.474;19.056;2023-05-07T12:41:55;100513.69;;;25.94;37.84
58769;BME280;44536;47.474;19.056;2023-05-07T12:44:57;100513.94;;;25.66;38.51
58769;BME280;44536;47.474;19.056;2023-05-07T12:48:01;100510.16;;;25.07;40.17
58769;BME280;44536;47.474;19.056;2023-05-07T12:51:05;100511.50;;;24.57;40.01
58769;BME280;44536;47.474;19.056;2023-05-07T12:54:09;100522.22;;;23.83;41.54
58769;BME280;44536;47.474;19.056;2023-05-07T12:57:11;100519.53;;;23.96;41.72
58769;BME280;44536;47.474;19.056;2023-05-07T13:00:14;100519.53;;;24.92;40.73
58769;BME280;44536;47.474;19.056;2023-05-07T13:03:27;100515.22;;;24.43;39.66
58769;BME280;44536;47.474;19.056;2023-05-07T13:06:30;100512.47;;;24.30;40.50
58769;BME280;44536;47.474;19.056;2023-05-07T13:09:33;100507.22;;;23.87;42.11
58769;BME280;44536;47.474;19.056;2023-05-07T13:12:35;100510.12;;;23.86;41.14
58769;BME280;44536;47.474;19.056;2023-05-07T13:15:38;100510.34;;;23.84;41.08
58769;BME280;44536;47.474;19.056;2023-05-07T13:18:40;100506.78;;;24.25;40.53
58769;BME280;44536;47.474;19.056;2023-05-07T13:21:45;100500.16;;;25.15;38.20
58769;BME280;44536;47.474;19.056;2023-05-07T13:24:48;100501.78;;;24.96;38.44
58769;BME280;44536;47.474;19.056;2023-05-07T13:27:50;100494.25;;;24.17;40.30
58769;BME280;44536;47.474;19.056;2023-05-07T13:31:11;100492.47;;;23.62;41.39
58769;BME280;44536;47.474;19.056;2023-05-07T13:34:13;100493.72;;;23.31;42.05
58769;BME280;44536;47.474;19.056;2023-05-07T13:37:16;100490.03;;;23.45;42.66
58769;BME280;44536;47.474;19.056;2023-05-07T13:40:18;100484.44;;;23.47;41.04
58769;BME280;44536;47.474;19.056;2023-05-07T13:43:21;100486.44;;;23.60;41.02
58769;BME280;44536;47.474;19.056;2023-05-07T13:46:23;100478.41;;;24.21;38.96
58769;BME280;44536;47.474;19.056;2023-05-07T13:49:26;100477.59;;;24.20;39.37
58769;BME280;44536;47.474;19.056;2023-05-07T13:52:28;100472.28;;;24.40;39.37
58769;BME280;44536;47.474;19.056;2023-05-07T13:55:31;100474.41;;;24.64;38.79
58769;BME280;44536;47.474;19.056;2023-05-07T13:58:36;100478.34;;;24.62;39.56
58769;BME280;44536;47.474;19.056;2023-05-07T14:01:46;100465.69;;;24.15;40.73
58769;BME280;44536;47.474;19.056;2023-05-07T14:04:49;100471.25;;;24.06;40.77
58769;BME280;44536;47.474;19.056;2023-05-07T14:07:52;100468.06;;;24.31;40.12
58769;BME280;44536;47.474;19.056;2023-05-07T14:10:54;100466.22;;;23.90;41.64
58769;BME280;44536;47.474;19.056;2023-05-07T14:13:56;100468.59;;;23.72;40.85
58769;BME280;44536;47.474;19.056;2023-05-07T14:17:00;100467.81;;;23.78;40.25
58769;BME280;44536;47.474;19.056;2023-05-07T14:20:03;100469.84;;;24.17;40.48
58769;BME280;44536;47.474;19.056;2023-05-07T14:23:06;100475.19;;;23.97;40.53
58769;BME280;44536;47.474;19.056;2023-05-07T14:26:08;100471.81;;;23.89;40.17
58769;BME280;44536;47.474;19.056;2023-05-07T14:29:11;100473.12;;;24.06;39.50
58769;BME280;44536;47.474;19.056;2023-05-07T14:32:13;100476.19;;;24.31;40.10
58769;BME280;44536;47.474;19.056;2023-05-07T14:35:16;100475.78;;;24.27;40.38
58769;BME280;44536;47.474;19.056;2023-05-07T14:38:18;100484.28;;;23.83;41.45
58769;BME280;44536;47.474;19.056;2023-05-07T14:41:21;100489.81;;;23.68;41.46
58769;BME280;44536;47.474;19.056;2023-05-07T14:44:24;100490.44;;;23.42;41.91
58769;BME280;44536;47.474;19.056;2023-05-07T14:47:27;100483.34;;;23.14;42.76
58769;BME280;44536;47.474;19.056;2023-05-07T14:50:30;100483.03;;;23.02;43.44
58769;BME280;44536;47.474;19.056;2023-05-07T14:53:32;100486.06;;;22.92;43.51
58769;BME280;44536;47.474;19.056;2023-05-07T14:56:35;100486.50;;;23.17;43.38
58769;BME280;44536;47.474;19.056;2023-05-07T14:59:37;100496.84;;;23.35;42.98
58769;BME280;44536;47.474;19.056;2023-05-07T15:02:40;100495.91;;;23.21;43.38
58769;BME280;44536;47.474;19.056;2023-05-07T15:05:42;100493.91;;;23.30;43.51
58769;BME280;44536;47.474;19.056;2023-05-07T15:08:45;100496.62;;;23.08;43.68
58769;BME280;44536;47.474;19.056;2023-05-07T15:11:47;100491.22;;;23.08;44.42
58769;BME280;44536;47.474;19.056;2023-05-07T15:14:50;100487.97;;;23.48;43.60
58769;BME280;44536;47.474;19.056;2023-05-07T15:17:52;100496.81;;;23.28;44.06
58769;BME280;44536;47.474;19.056;2023-05-07T15:20:55;100496.22;;;23.33;44.02
58769;BME280;44536;47.474;19.056;2023-05-07T15:23:58;100498.56;;;23.42;44.06
58769;BME280;44536;47.474;19.056;2023-05-07T15:27:01;100505.13;;;23.05;44.31
58769;BME280;44536;47.474;19.056;2023-05-07T15:30:05;100500.47;;;22.78;45.02
58769;BME280;44536;47.474;19.056;2023-05-07T15:33:08;100502.69;;;22.89;45.15
58769;BME280;44536;47.474;19.056;2023-05-07T15:36:10;100500.47;;;22.42;45.57
58769;BME280;44536;47.474;19.056;2023-05-07T15:39:12;100496.75;;;22.07;46.17
58769;BME280;44536;47.474;19.056;2023-05-07T15:42:15;100508.25;;;22.01;45.09
58769;BME280;44536;47.474;19.056;2023-05-07T15:45:19;100498.22;;;22.09;44.86
58769;BME280;44536;47.474;19.056;2023-05-07T15:48:22;100496.62;;;22.00;44.44
58769;BME280;44536;47.474;19.056;2023-05-07T15:51:24;100499.16;;;22.02;44.02
58769;BME280;44536;47.474;19.056;2023-05-07T15:54:26;100497.00;;;21.97;43.81
58769;BME280;44536;47.474;19.056;2023-05-07T15:57:29;100499.81;;;22.04;43.74